Time;durP1;ratioP1;P1;durP2;ratioP2;P2;SDS_P1;SDS_P2;PMS_P1;PMS_P2;Temp;Humidity;BMP_temperature;BMP_pressure;BME280_temperature;BME280_humidity;BME280_pressure;Samples;Min_cycle;Max_cycle;Signal;HPM_P1;HPM_P2
2021/12/25 00:00:48;;;;;;;31.13;17.92;;;;;;;9.93;72.28;97978.81;5117097;28;20054;-69
2021/12/25 00:03:39;;;;;;;29.55;16.73;;;;;;;10.04;72.00;97966.09;5112295;28;20102;-70
2021/12/25 00:06:29;;;;;;;27.15;17.60;;;;;;;9.77;72.16;97946.06;5098589;28;20061;-70
2021/12/25 00:09:19;;;;;;;28.77;16.15;;;;;;;9.83;72.28;97958.66;5112133;28;20055;-70
2021/12/25 00:12:10;;;;;;;28.90;16.80;;;;;;;9.81;72.53;97943.91;5111979;28;20067;-70
2021/12/25 00:15:00;;;;;;;32.63;16.77;;;;;;;9.94;72.72;97956.69;5121742;28;20046;-69
2021/12/25 00:17:50;;;;;;;28.48;17.08;;;;;;;9.95;72.66;97961.78;5124533;28;20076;-70
2021/12/25 00:20:40;;;;;;;25.88;16.48;;;;;;;9.90;71.83;97953.53;5128042;28;20062;-70
2021/12/25 00:23:31;;;;;;;25.38;15.52;;;;;;;9.78;72.48;97966.25;5129735;28;20038;-70
2021/12/25 00:26:38;;;;;;;31.05;16.83;;;;;;;9.78;72.43;97954.84;5117371;28;20162;-69
2021/12/25 00:35:30;;;;;;;26.98;15.95;;;;;;;9.58;72.44;97947.19;5127491;28;20042;-70
2021/12/25 00:38:20;;;;;;;27.00;16.30;;;;;;;9.62;72.66;97934.47;5113070;28;20062;-70
2021/12/25 00:41:13;;;;;;;27.50;16.77;;;;;;;9.70;72.83;97942.44;5131169;28;20106;-70
2021/12/25 00:44:03;;;;;;;23.58;14.93;;;;;;;9.69;72.78;97959.28;5132861;28;20046;-69
2021/12/25 00:46:57;;;;;;;21.27;14.82;;;;;;;9.67;72.87;97961.28;5115413;28;20062;-70
2021/12/25 00:49:48;;;;;;;25.10;14.95;;;;;;;9.65;72.51;97956.13;5126958;28;20043;-69
2021/12/25 00:52:38;;;;;;;28.90;16.75;;;;;;;9.61;72.20;97943.41;5129431;28;20058;-71
2021/12/25 00:55:30;;;;;;;30.95;16.90;;;;;;;9.62;72.42;97950.34;5112461;28;20067;-71
2021/12/25 00:58:20;;;;;;;29.40;16.05;;;;;;;9.57;72.71;97950.84;5128199;28;20118;-69
2021/12/25 01:01:10;;;;;;;31.17;17.38;;;;;;;9.58;72.67;97943.72;5128102;28;20127;-70
2021/12/25 01:04:02;;;;;;;28.40;16.48;;;;;;;9.78;72.96;97945.06;5124642;29;20099;-69
2021/12/25 01:06:52;;;;;;;27.20;16.70;;;;;;;9.83;72.14;97941.91;5121132;28;20098;-70
2021/12/25 01:09:42;;;;;;;28.15;16.65;;;;;;;9.76;72.71;97936.47;5123539;28;20058;-70
2021/12/25 01:12:47;;;;;;;27.42;16.98;;;;;;;9.79;72.67;97941.41;5109951;29;20058;-70
2021/12/25 01:25:51;;;;;;;31.70;17.63;;;;;;;10.00;71.52;97933.00;5111201;28;20065;-69
2021/12/25 01:38:36;;;;;;;34.53;20.30;;;;;;;9.75;72.71;97912.81;5118811;28;20054;-70
2021/12/25 01:48:19;;;;;;;29.95;17.98;;;;;;;9.63;72.29;97914.94;5122046;29;20218;-71
2021/12/25 01:51:09;;;;;;;27.00;16.73;;;;;;;9.50;72.53;97902.19;5122858;29;20058;-69
2021/12/25 01:53:59;;;;;;;28.60;17.13;;;;;;;9.48;72.77;97906.84;5123363;29;20193;-70
2021/12/25 01:56:49;;;;;;;25.75;16.70;;;;;;;9.51;72.83;97903.88;5114776;29;20189;-70
2021/12/25 01:59:40;;;;;;;27.27;16.80;;;;;;;9.51;73.22;97911.81;5109120;29;20043;-71
2021/12/25 02:02:31;;;;;;;34.97;19.38;;;;;;;8.87;75.36;97892.13;5117376;28;20454;-70
2021/12/25 02:05:23;;;;;;;32.03;19.10;;;;;;;9.26;73.72;97904.81;5123347;28;20206;-69
2021/12/25 02:08:34;;;;;;;32.25;19.10;;;;;;;9.49;73.40;97903.19;5104811;29;20078;-70
2021/12/25 02:11:25;;;;;;;36.50;19.27;;;;;;;9.46;72.95;97907.97;5118019;28;20051;-69
2021/12/25 02:14:15;;;;;;;28.02;18.15;;;;;;;9.48;73.09;97906.00;5107615;28;20047;-69
2021/12/25 02:17:16;;;;;;;27.48;18.05;;;;;;;9.43;73.05;97908.31;5123699;29;20722;-69
2021/12/25 02:20:09;;;;;;;30.40;17.98;;;;;;;9.28;72.85;97890.44;5107956;29;20062;-69
2021/12/25 02:23:01;;;;;;;27.17;18.15;;;;;;;9.36;72.76;97906.31;5121723;29;20054;-69
2021/12/25 02:25:55;;;;;;;27.90;17.95;;;;;;;9.30;72.62;97892.91;5122699;28;20062;-70
2021/12/25 02:28:45;;;;;;;;;;;;;;;9.38;72.53;97900.88;5121864;28;20495;-69
2021/12/25 02:31:36;;;;;;;35.78;18.75;;;;;;;9.36;73.28;97893.06;5128110;28;20508;-70
2021/12/25 02:34:27;;;;;;;36.75;20.73;;;;;;;9.30;73.99;97922.81;5107009;28;20134;-70
2021/12/25 02:37:17;;;;;;;40.05;21.85;;;;;;;9.46;74.14;97897.41;5122278;29;20133;-70
2021/12/25 02:40:08;;;;;;;45.88;23.77;;;;;;;9.50;74.08;97878.38;5108478;29;20123;-69
2021/12/25 02:42:59;;;;;;;40.28;23.73;;;;;;;9.52;73.88;97886.16;5122978;28;20054;-69
2021/12/25 02:45:53;;;;;;;37.33;22.55;;;;;;;9.59;73.55;97895.09;5107397;29;20050;-70
2021/12/25 02:48:44;;;;;;;;;;;;;;;9.46;73.66;97902.69;5124584;28;20420;-69
2021/12/25 02:51:35;;;;;;;38.20;22.23;;;;;;;9.24;74.02;97875.88;5116811;28;19929;-72
2021/12/25 02:54:25;;;;;;;40.38;23.98;;;;;;;9.45;73.91;97893.09;5122306;29;20051;-68
2021/12/25 02:57:16;;;;;;;39.15;23.77;;;;;;;9.43;74.23;97887.97;5107848;28;20701;-71
2021/12/25 03:00:08;;;;;;;37.00;21.10;;;;;;;9.38;73.82;97866.47;5119084;29;20094;-71
2021/12/25 03:03:00;;;;;;;38.47;22.95;;;;;;;9.56;73.53;97882.19;5113082;28;20073;-72
2021/12/25 03:05:51;;;;;;;34.55;22.17;;;;;;;9.47;73.16;97883.16;5119566;28;20521;-68
2021/12/25 03:08:43;;;;;;;33.00;21.05;;;;;;;9.35;74.06;97862.34;5120897;28;20058;-72
2021/12/25 03:11:34;;;;;;;35.28;21.90;;;;;;;9.28;73.70;97853.41;5106917;29;20166;-71
2021/12/25 03:14:37;;;;;;;54.42;21.10;;;;;;;9.38;73.82;97863.84;5089901;28;20687;-70
2021/12/25 03:17:28;;;;;;;28.20;18.65;;;;;;;9.41;73.83;97864.31;5104726;28;20047;-70
2021/12/25 03:20:19;;;;;;;32.17;20.67;;;;;;;9.44;73.20;97864.97;5120335;28;20043;-70
2021/12/25 03:23:10;;;;;;;26.45;18.33;;;;;;;9.38;73.20;97867.28;5110456;28;20109;-70
2021/12/25 03:26:02;;;;;;;29.20;19.00;;;;;;;9.27;73.12;97867.63;5106640;29;20174;-69
2021/12/25 03:28:53;;;;;;;37.55;21.63;;;;;;;9.10;73.88;97887.06;5117478;28;20058;-70
2021/12/25 03:31:45;;;;;;;28.90;18.58;;;;;;;9.06;74.55;97885.75;5108032;29;20051;-69
2021/12/25 03:34:36;;;;;;;29.75;18.52;;;;;;;9.20;75.02;97882.47;5116225;28;20561;-69
2021/12/25 03:37:26;;;;;;;27.77;17.73;;;;;;;9.45;73.69;97879.88;5121029;28;20057;-69
2021/12/25 03:40:16;;;;;;;28.55;17.65;;;;;;;9.32;73.09;97880.34;5107721;29;20148;-70
2021/12/25 03:43:06;;;;;;;26.52;17.42;;;;;;;9.16;74.12;97881.13;5117999;28;20067;-70
2021/12/25 03:45:57;;;;;;;26.42;16.90;;;;;;;9.35;73.19;97877.38;5120122;28;20047;-69
2021/12/25 03:58:02;;;;;;;28.23;17.83;;;;;;;9.27;74.27;97883.50;5118931;28;20054;-69
2021/12/25 04:00:59;;;;;;;24.52;16.88;;;;;;;9.29;73.98;97875.38;5120833;29;20147;-71
2021/12/25 04:04:01;;;;;;;27.20;17.75;;;;;;;9.33;74.33;97882.81;5117291;28;20043;-69
2021/12/25 04:07:01;;;;;;;28.80;17.48;;;;;;;9.38;73.87;97875.22;5107175;29;20494;-69
2021/12/25 04:09:58;;;;;;;30.27;18.45;;;;;;;9.74;72.53;97869.63;5112829;28;20082;-69
2021/12/25 04:12:48;;;;;;;33.65;19.70;;;;;;;9.53;73.41;97871.94;5126752;28;20090;-69
2021/12/25 04:15:40;;;;;;;31.13;19.15;;;;;;;9.42;73.76;97867.78;5116792;28;20050;-69
2021/12/25 04:18:30;;;;;;;30.58;18.50;;;;;;;9.28;73.95;97857.88;5105435;29;20047;-69
2021/12/25 04:21:22;;;;;;;30.38;19.15;;;;;;;9.33;73.73;97859.00;5118301;28;20058;-70
2021/12/25 04:24:13;;;;;;;38.78;23.20;;;;;;;9.53;73.92;97850.75;5094956;29;20529;-69
2021/12/25 04:27:08;;;;;;;39.53;24.02;;;;;;;9.46;73.82;97844.47;5104697;28;20047;-70
2021/12/25 04:30:06;;;;;;;39.78;24.60;;;;;;;9.49;74.33;97841.50;5120065;28;20449;-72
2021/12/25 05:04:46;;;;;;;30.98;19.75;;;;;;;9.09;74.06;97796.34;5117228;28;20105;-70
2021/12/25 05:07:40;;;;;;;32.10;20.08;;;;;;;8.96;74.39;97793.34;5115241;28;20079;-70
2021/12/25 05:10:30;;;;;;;35.00;20.63;;;;;;;9.20;74.57;97818.16;5118962;28;20232;-69
2021/12/25 05:13:20;;;;;;;35.22;21.85;;;;;;;9.35;72.42;97812.06;5120980;28;20107;-70
2021/12/25 05:16:14;;;;;;;33.63;20.77;;;;;;;9.13;73.73;97813.53;5105216;29;20430;-70
2021/12/25 05:19:05;;;;;;;38.92;22.33;;;;;;;9.08;74.24;97812.38;5104257;28;20659;-70
2021/12/25 05:21:55;;;;;;;34.65;20.63;;;;;;;9.12;74.48;97811.06;5119740;29;20043;-70
2021/12/25 05:24:47;;;;;;;36.75;21.83;;;;;;;9.12;74.67;97808.41;5118093;29;20405;-69
2021/12/25 05:27:37;;;;;;;31.75;20.13;;;;;;;9.12;74.13;97805.78;5113681;29;20063;-70
2021/12/25 05:30:28;;;;;;;46.95;20.25;;;;;;;9.14;73.52;97803.81;5119032;28;20070;-70
2021/12/25 05:33:41;;;;;;;36.47;20.98;;;;;;;9.14;73.16;97798.50;5112284;28;20051;-70
2021/12/25 05:36:52;;;;;;;42.83;24.40;;;;;;;9.15;73.43;97798.34;5105149;28;20414;-70
2021/12/25 05:40:05;;;;;;;39.35;22.52;;;;;;;9.26;73.39;97804.28;5119139;28;20051;-70
2021/12/25 05:43:01;;;;;;;36.72;21.65;;;;;;;9.06;73.88;97807.25;5116420;29;20171;-69
2021/12/25 05:45:52;;;;;;;46.13;24.85;;;;;;;9.08;74.84;97807.91;5122829;29;20043;-71
2021/12/25 05:48:57;;;;;;;38.03;22.02;;;;;;;9.16;73.67;97809.75;5107267;29;20105;-70
2021/12/25 05:52:08;;;;;;;32.33;20.00;;;;;;;9.02;74.78;97810.38;5121711;29;20147;-70
2021/12/25 05:55:19;;;;;;;30.67;19.30;;;;;;;8.96;73.96;97781.97;5108707;29;20062;-70
2021/12/25 05:58:28;;;;;;;26.88;17.60;;;;;;;9.06;73.80;97798.50;5123708;28;20453;-70
2021/12/25 06:01:50;;;;;;;28.95;18.08;;;;;;;9.09;73.89;97790.22;5118750;28;20178;-69
2021/12/25 06:04:45;;;;;;;30.45;19.05;;;;;;;9.07;73.71;97800.13;5109392;29;20203;-70
2021/12/25 06:07:35;;;;;;;31.48;19.48;;;;;;;9.02;74.34;97790.06;5122006;28;20058;-70
2021/12/25 06:10:26;;;;;;;32.80;19.90;;;;;;;9.04;73.47;97800.47;5119046;28;20576;-70
2021/12/25 06:13:19;;;;;;;27.90;17.83;;;;;;;9.01;74.04;97800.81;5123857;28;20051;-69
2021/12/25 06:16:10;;;;;;;27.58;17.10;;;;;;;9.01;73.60;97808.75;5107166;29;20047;-70
2021/12/25 06:19:11;;;;;;;28.63;17.88;;;;;;;8.77;74.54;97801.56;5120810;28;20062;-70
2021/12/25 06:22:22;;;;;;;27.33;17.15;;;;;;;8.96;73.81;97806.56;5121813;29;20079;-70
2021/12/25 06:25:41;;;;;;;29.25;17.77;;;;;;;8.91;74.48;97798.31;5117557;28;20156;-69
2021/12/25 06:29:01;;;;;;;27.42;17.30;;;;;;;9.05;73.88;97810.88;5125050;28;20054;-70
2021/12/25 06:32:09;;;;;;;25.60;17.13;;;;;;;8.98;74.11;97811.72;5107521;29;20178;-69
2021/12/25 06:35:28;;;;;;;28.73;17.48;;;;;;;8.94;73.89;97804.09;5108455;29;20150;-70
2021/12/25 06:38:41;;;;;;;55.65;19.85;;;;;;;9.17;73.51;97808.75;5118366;28;20058;-70
2021/12/25 06:41:36;;;;;;;27.60;18.25;;;;;;;8.94;73.82;97796.16;5121592;28;20070;-70
2021/12/25 06:44:29;;;;;;;26.52;18.13;;;;;;;9.06;73.68;97809.06;5121932;28;20051;-71
2021/12/25 06:47:19;;;;;;;29.20;18.10;;;;;;;9.03;74.39;97814.69;5115816;29;20051;-69
2021/12/25 06:50:13;;;;;;;30.50;18.60;;;;;;;9.10;73.70;97811.22;5119899;28;20054;-70
2021/12/25 06:53:22;;;;;;;34.95;19.33;;;;;;;9.07;74.14;97811.56;5123265;29;20190;-70
2021/12/25 06:56:33;;;;;;;28.08;18.20;;;;;;;8.97;74.61;97815.31;5114829;28;20047;-70
2021/12/25 06:59:26;;;;;;;32.35;18.20;;;;;;;8.90;74.24;97813.31;5119358;28;20107;-70
2021/12/25 07:02:16;;;;;;;32.83;19.30;;;;;;;8.92;74.06;97808.72;5108244;28;20204;-69
2021/12/25 07:05:42;;;;;;;24.95;17.67;;;;;;;9.14;74.01;97824.97;5080740;29;20084;-70
2021/12/25 07:08:54;;;;;;;26.58;18.05;;;;;;;8.94;74.87;97825.25;5120738;28;20174;-70
2021/12/25 07:12:04;;;;;;;29.02;18.35;;;;;;;8.98;74.10;97836.31;5118588;29;20059;-70
2021/12/25 07:15:27;;;;;;;24.65;17.23;;;;;;;8.94;74.55;97835.81;5121768;28;20043;-69
2021/12/25 07:18:34;;;;;;;26.17;17.17;;;;;;;9.05;74.62;97841.78;5123634;28;20043;-71
2021/12/25 07:21:36;;;;;;;16.10;12.80;;;;;;;9.04;73.44;97840.97;5121503;29;20062;-71
2021/12/25 07:24:44;;;;;;;19.67;14.50;;;;;;;9.13;73.15;97839.16;5122651;29;20042;-70
2021/12/25 07:28:12;;;;;;;20.10;14.13;;;;;;;9.12;73.89;97846.25;5105413;28;20089;-70
2021/12/25 07:31:02;;;;;;;20.23;14.98;;;;;;;8.92;73.73;97814.00;5122454;28;20553;-69
2021/12/25 07:33:52;;;;;;;20.92;15.32;;;;;;;8.97;74.41;97857.63;5117230;28;20054;-69
2021/12/25 07:36:42;;;;;;;21.60;15.15;;;;;;;9.12;73.81;97853.38;5121349;29;20102;-70
2021/12/25 07:39:33;;;;;;;19.00;13.55;;;;;;;9.16;73.62;97852.06;5119976;28;20590;-70
2021/12/25 07:42:23;;;;;;;36.15;19.45;;;;;;;9.11;74.31;97868.41;5119386;28;20050;-71
2021/12/25 07:45:26;;;;;;;28.00;17.10;;;;;;;9.14;74.00;97869.91;5115364;28;20097;-70
2021/12/25 07:48:19;;;;;;;28.70;17.90;;;;;;;9.12;74.22;97864.78;5121353;28;20098;-70
2021/12/25 07:51:09;;;;;;;22.88;14.80;;;;;;;9.10;73.75;97872.03;5120581;29;20050;-70
2021/12/25 07:53:59;;;;;;;29.85;18.65;;;;;;;9.09;73.87;97870.38;5120928;28;20482;-70
2021/12/25 07:56:49;;;;;;;25.67;17.45;;;;;;;9.16;73.75;97868.75;5117951;28;20054;-70
2021/12/25 07:59:39;;;;;;;21.98;14.80;;;;;;;9.18;73.86;97879.19;5118957;28;20058;-70
2021/12/25 08:02:29;;;;;;;22.17;15.00;;;;;;;9.17;73.61;97866.91;5130402;28;20053;-70
2021/12/25 08:05:20;;;;;;;19.23;13.50;;;;;;;9.27;74.24;97883.50;5129134;28;20090;-70
2021/12/25 08:08:12;;;;;;;21.23;13.93;;;;;;;9.29;73.44;97888.59;5105097;29;20087;-70
2021/12/25 08:11:01;;;;;;;21.25;13.27;;;;;;;9.32;74.02;97883.81;5121051;28;20105;-70
2021/12/25 08:13:53;;;;;;;19.35;13.13;;;;;;;9.41;73.98;97885.50;5128861;28;20690;-70
2021/12/25 08:16:43;;;;;;;17.13;11.05;;;;;;;9.50;73.64;97886.31;5125155;28;20140;-70
2021/12/25 08:19:34;;;;;;;15.88;10.50;;;;;;;9.40;73.65;97860.03;5111287;28;20061;-70
2021/12/25 08:22:43;;;;;;;13.68;9.25;;;;;;;9.47;74.32;97877.88;5118254;28;20692;-70
2021/12/25 08:25:52;;;;;;;13.18;8.45;;;;;;;9.55;73.59;97877.91;5118058;28;20109;-69
2021/12/25 08:29:02;;;;;;;10.25;7.25;;;;;;;9.63;74.13;97880.53;5129411;28;20054;-69
2021/12/25 08:32:24;;;;;;;13.48;7.55;;;;;;;9.80;74.41;97876.91;5118092;28;20462;-70
2021/12/25 08:35:33;;;;;;;13.70;8.00;;;;;;;9.83;74.41;97881.88;5117493;28;20054;-69
2021/12/25 08:38:23;;;;;;;17.63;7.65;;;;;;;10.00;74.49;97881.84;5116795;29;20062;-69
2021/12/25 08:41:13;;;;;;;14.10;8.68;;;;;;;10.08;74.78;97892.44;5105561;29;20113;-68
2021/12/25 08:44:18;;;;;;;13.95;9.40;;;;;;;10.19;73.91;97902.69;5113986;28;20414;-69
2021/12/25 08:47:11;;;;;;;;;;;;;;;9.79;75.37;97901.72;5119700;28;20040;-70
2021/12/25 08:50:09;;;;;;;30.27;19.45;;;;;;;9.91;74.79;97890.81;5116255;29;19953;-69
2021/12/25 08:52:59;;;;;;;36.58;22.77;;;;;;;9.82;75.72;97914.63;5118206;28;20198;-70
2021/12/25 08:55:50;;;;;;;40.97;25.00;;;;;;;9.83;74.47;97907.50;5115321;28;20098;-68
2021/12/25 08:58:40;;;;;;;34.20;19.48;;;;;;;9.90;74.56;97900.56;5121981;28;20106;-67
2021/12/25 09:01:30;;;;;;;27.17;17.10;;;;;;;9.94;74.58;97901.06;5118225;28;20058;-70
2021/12/25 09:04:20;;;;;;;33.45;16.85;;;;;;;10.11;73.94;97910.66;5127619;28;20050;-70
2021/12/25 09:07:11;;;;;;;30.67;15.15;;;;;;;10.09;74.60;97913.44;5104950;28;20108;-70
2021/12/25 09:10:02;;;;;;;22.20;13.52;;;;;;;10.30;74.54;97922.75;5116116;29;20122;-70
2021/12/25 09:12:52;;;;;;;25.15;12.82;;;;;;;10.32;73.77;97923.38;5103863;28;20054;-71
2021/12/25 09:15:42;;;;;;;19.75;11.73;;;;;;;10.23;74.76;97925.22;5130472;28;20050;-69
2021/12/25 09:18:32;;;;;;;27.17;13.40;;;;;;;10.39;74.27;97913.75;5124456;28;20061;-68
2021/12/25 09:21:22;;;;;;;21.25;12.65;;;;;;;10.50;74.52;97926.69;5124000;29;20050;-68
2021/12/25 09:24:12;;;;;;;24.52;11.48;;;;;;;10.54;74.09;97930.63;5121997;28;20062;-68
2021/12/25 09:27:04;;;;;;;19.58;10.98;;;;;;;10.63;73.66;97934.09;5123644;29;20121;-67
2021/12/25 09:29:54;;;;;;;19.65;11.70;;;;;;;10.30;74.54;97926.22;5123940;28;20097;-67
2021/12/25 09:32:45;;;;;;;25.75;13.48;;;;;;;10.32;74.58;97937.47;5124192;28;20521;-68
2021/12/25 09:35:35;;;;;;;21.55;13.50;;;;;;;10.64;73.23;97941.03;5122262;28;20526;-68
2021/12/25 09:38:25;;;;;;;25.02;13.38;;;;;;;10.66;72.90;97944.38;5122925;28;20713;-69
2021/12/25 09:41:17;;;;;;;23.67;13.80;;;;;;;10.55;73.21;97942.06;5117411;28;20057;-69
2021/12/25 09:44:07;;;;;;;18.67;12.73;;;;;;;10.61;73.87;97940.56;5123791;29;20054;-69
2021/12/25 09:46:58;;;;;;;19.65;12.43;;;;;;;10.52;73.53;97934.44;5113321;28;20604;-69
2021/12/25 09:49:50;;;;;;;20.88;12.93;;;;;;;10.57;73.56;97937.44;5130248;28;20125;-70
2021/12/25 09:52:41;;;;;;;22.77;12.65;;;;;;;10.60;73.37;97942.38;5114954;28;20196;-68
2021/12/25 09:55:31;;;;;;;23.42;13.05;;;;;;;10.58;73.81;97941.72;5132450;28;20049;-68
2021/12/25 09:58:22;;;;;;;21.33;11.57;;;;;;;10.65;73.85;97942.69;5132105;28;20049;-69
2021/12/25 10:01:12;;;;;;;21.10;12.18;;;;;;;10.77;73.29;97938.69;5121488;28;20109;-68
2021/12/25 10:04:04;;;;;;;18.42;11.75;;;;;;;10.68;73.05;97945.00;5119046;28;20540;-69
2021/12/25 10:06:54;;;;;;;20.92;11.88;;;;;;;10.46;74.39;97935.13;5124006;28;20038;-70
2021/12/25 10:10:10;;;;;;;25.52;12.23;;;;;;;10.80;72.42;97940.19;5122424;28;20047;-71
2021/12/25 10:13:00;;;;;;;21.75;12.48;;;;;;;10.69;73.01;97936.03;5124949;28;20054;-70
2021/12/25 10:15:52;;;;;;;20.60;12.18;;;;;;;10.56;73.25;97933.09;5134484;28;20041;-70
2021/12/25 10:18:43;;;;;;;20.25;12.30;;;;;;;10.72;73.22;97942.84;5124772;28;20141;-72
2021/12/25 10:21:33;;;;;;;21.23;13.13;;;;;;;10.66;73.83;97932.91;5108117;28;20102;-72
2021/12/25 10:24:28;;;;;;;24.15;13.18;;;;;;;10.73;73.18;97929.44;5106315;29;20058;-71
2021/12/25 10:27:20;;;;;;;22.33;13.02;;;;;;;10.65;73.54;97929.44;5120116;28;20062;-73
2021/12/25 10:30:10;;;;;;;20.48;11.43;;;;;;;10.82;72.66;97923.06;5123538;28;20055;-70
2021/12/25 10:33:01;;;;;;;22.20;13.52;;;;;;;10.66;73.33;97936.41;5134532;28;20062;-69
2021/12/25 10:35:52;;;;;;;24.25;12.98;;;;;;;10.51;72.94;97932.81;5130857;28;20129;-70
2021/12/25 10:38:57;;;;;;;22.08;12.60;;;;;;;10.71;72.87;97935.88;5116921;28;20089;-70
2021/12/25 10:41:53;;;;;;;24.92;13.77;;;;;;;10.81;73.50;97931.22;5124402;28;20054;-71
2021/12/25 10:44:50;;;;;;;25.50;13.20;;;;;;;10.82;73.11;97922.25;5124161;28;20125;-71
2021/12/25 10:47:40;;;;;;;25.73;13.45;;;;;;;10.88;73.31;97936.66;5134766;28;20078;-71
2021/12/25 10:50:42;;;;;;;21.52;13.70;;;;;;;10.93;73.02;97929.03;5121270;28;20525;-72
2021/12/25 10:53:43;;;;;;;23.90;12.70;;;;;;;10.86;73.08;97912.13;5126867;28;20046;-70
2021/12/25 10:56:36;;;;;;;19.25;11.57;;;;;;;11.05;72.68;97925.81;5120585;28;20051;-70
2021/12/25 10:59:41;;;;;;;15.85;9.60;;;;;;;11.00;73.09;97919.38;5129733;28;20113;-73
2021/12/25 11:02:39;;;;;;;17.70;9.57;;;;;;;11.01;72.93;97926.34;5127400;28;20047;-72
2021/12/25 11:05:34;;;;;;;18.40;9.15;;;;;;;11.11;72.96;97916.34;5111520;28;20042;-69
2021/12/25 11:08:24;;;;;;;16.23;8.68;;;;;;;11.16;72.04;97916.66;5121306;28;20109;-69
2021/12/25 11:11:20;;;;;;;12.40;7.22;;;;;;;11.13;72.66;97917.00;5127453;28;20181;-72
2021/12/25 11:14:12;;;;;;;13.82;7.32;;;;;;;11.16;72.33;97924.63;5124321;28;20125;-72
2021/12/25 11:17:25;;;;;;;16.98;8.05;;;;;;;11.16;72.48;97921.97;5129818;28;20416;-70
2021/12/25 11:20:23;;;;;;;10.23;7.22;;;;;;;11.24;72.33;97927.22;5133039;28;20062;-71
2021/12/25 11:23:14;;;;;;;13.23;7.40;;;;;;;11.16;72.16;97900.72;5112272;28;20414;-72
2021/12/25 11:26:05;;;;;;;13.90;7.50;;;;;;;11.21;71.93;97916.94;5122022;28;20057;-70
2021/12/25 11:28:55;;;;;;;17.13;7.15;;;;;;;11.34;71.40;97920.88;5132617;28;20051;-70
2021/12/25 11:31:48;;;;;;;11.98;6.55;;;;;;;10.95;73.04;97919.06;5126308;28;20181;-72
2021/12/25 11:34:38;;;;;;;15.27;7.00;;;;;;;11.11;72.33;97905.72;5130873;28;20043;-73
2021/12/25 11:37:28;;;;;;;12.68;7.72;;;;;;;11.07;72.53;97898.28;5118277;28;20075;-73
2021/12/25 11:40:23;;;;;;;13.48;6.97;;;;;;;11.12;72.32;97907.38;5121393;28;20043;-71
2021/12/25 11:43:14;;;;;;;13.80;7.75;;;;;;;11.21;71.65;97898.38;5120852;28;20163;-71
2021/12/25 11:46:07;;;;;;;14.02;8.20;;;;;;;11.15;72.74;97903.53;5112426;28;20102;-74
2021/12/25 11:49:10;;;;;;;20.83;8.60;;;;;;;11.24;72.48;97899.84;5114113;28;20059;-70
2021/12/25 11:52:21;;;;;;;14.73;8.32;;;;;;;11.04;72.68;97880.91;5114296;28;20518;-71
2021/12/25 11:55:24;;;;;;;13.60;8.05;;;;;;;11.12;72.55;97885.31;5114423;28;20058;-73
2021/12/25 11:58:44;;;;;;;16.80;8.40;;;;;;;10.93;73.25;97891.91;5120986;28;20050;-71
2021/12/25 12:01:37;;;;;;;13.93;8.32;;;;;;;10.91;73.20;97897.38;5127144;28;20122;-71
2021/12/25 12:04:28;;;;;;;14.13;8.90;;;;;;;10.79;73.35;97888.97;5114629;28;20058;-71
2021/12/25 12:07:23;;;;;;;18.58;8.52;;;;;;;10.99;73.99;97886.72;5106669;28;20410;-74
2021/12/25 12:10:45;;;;;;;15.65;9.52;;;;;;;10.53;75.85;97888.41;5125779;28;20055;-71
2021/12/25 12:14:27;;;;;;;19.58;9.70;;;;;;;10.77;74.40;97883.00;5119947;28;20114;-71
2021/12/25 12:17:49;;;;;;;19.50;9.80;;;;;;;10.94;73.46;97883.75;5124194;28;20065;-74
2021/12/25 12:20:41;;;;;;;17.50;9.63;;;;;;;10.48;75.54;97890.72;5115375;28;20704;-73
2021/12/25 12:23:53;;;;;;;19.30;10.05;;;;;;;10.71;74.46;97869.63;5113859;28;20062;-73
2021/12/25 12:26:49;;;;;;;20.20;10.73;;;;;;;10.65;74.64;97894.16;5101657;28;20050;-73
2021/12/25 12:29:39;;;;;;;19.15;11.07;;;;;;;10.82;74.50;97895.75;5119860;28;20081;-71
2021/12/25 12:32:32;;;;;;;22.02;10.77;;;;;;;11.11;73.67;97896.94;5100334;28;20058;-72
2021/12/25 12:35:36;;;;;;;18.98;9.68;;;;;;;11.11;73.63;97900.41;5124750;28;20050;-74
2021/12/25 12:41:38;;;;;;;16.77;9.55;;;;;;;11.31;73.17;97908.75;5115292;28;20043;-69
2021/12/25 12:44:30;;;;;;;19.27;9.30;;;;;;;10.89;74.60;97906.47;5112481;28;20698;-71
2021/12/25 12:47:21;;;;;;;18.00;9.10;;;;;;;10.74;74.20;97901.09;5109423;28;20106;-72
2021/12/25 12:50:11;;;;;;;16.65;9.60;;;;;;;11.10;73.37;97912.03;5113641;28;20943;-69
2021/12/25 12:53:06;;;;;;;21.80;9.85;;;;;;;10.82;74.45;97906.34;5108736;28;20046;-70
2021/12/25 12:56:04;;;;;;;18.75;10.32;;;;;;;10.90;74.47;97908.97;5117068;28;20049;-72
2021/12/25 12:58:56;;;;;;;19.58;10.98;;;;;;;10.92;74.08;97898.19;5121370;28;20058;-69
2021/12/25 13:01:47;;;;;;;23.98;10.80;;;;;;;11.23;73.25;97916.78;5119386;29;20522;-69
2021/12/25 13:04:59;;;;;;;18.17;10.18;;;;;;;11.11;73.81;97919.00;5116647;28;20070;-70
2021/12/25 13:07:53;;;;;;;19.98;10.30;;;;;;;11.12;73.24;97907.38;5112901;28;20043;-71
2021/12/25 13:10:50;;;;;;;21.67;11.03;;;;;;;11.00;72.52;97924.69;5116967;28;20090;-68
2021/12/25 13:13:50;;;;;;;17.33;9.25;;;;;;;10.98;73.17;97916.06;5115601;28;20408;-70
2021/12/25 13:16:44;;;;;;;14.73;9.27;;;;;;;11.01;72.85;97924.50;5118690;28;20102;-69
2021/12/25 13:19:46;;;;;;;17.33;10.23;;;;;;;10.96;72.28;97941.91;5108851;28;20565;-69
2021/12/25 13:22:37;;;;;;;12.85;9.40;;;;;;;11.09;71.90;97944.84;5119196;29;20039;-71
2021/12/25 13:25:27;;;;;;;16.65;9.20;;;;;;;10.80;72.34;97943.66;5115181;29;20070;-71
2021/12/25 13:28:19;;;;;;;13.55;8.73;;;;;;;10.16;74.86;97942.75;5098182;29;20051;-69
2021/12/25 13:31:19;;;;;;;18.55;10.05;;;;;;;10.72;72.61;97943.66;5111431;28;20638;-72
2021/12/25 13:34:15;;;;;;;13.18;8.63;;;;;;;10.85;72.20;97945.78;5123532;28;20062;-70
2021/12/25 13:37:13;;;;;;;11.10;6.95;;;;;;;10.75;72.24;97961.06;5124566;28;20061;-72
2021/12/25 13:40:09;;;;;;;8.73;5.93;;;;;;;10.47;71.56;97955.34;5113600;29;20044;-71
2021/12/25 13:43:10;;;;;;;11.60;5.93;;;;;;;10.37;71.64;97955.53;5114647;29;20075;-71
2021/12/25 13:46:00;;;;;;;7.50;5.35;;;;;;;10.15;71.70;97972.06;5118311;28;20113;-70
2021/12/25 13:48:50;;;;;;;9.07;5.45;;;;;;;10.33;69.75;97964.78;5119010;29;20593;-70
2021/12/25 13:51:42;;;;;;;6.85;4.95;;;;;;;10.15;68.75;97950.88;5120397;28;20065;-70
2021/12/25 13:54:35;;;;;;;9.38;5.15;;;;;;;9.82;69.62;97961.44;5116321;28;20058;-70
2021/12/25 13:57:27;;;;;;;10.37;5.73;;;;;;;9.22;71.72;97969.59;5118436;28;20054;-69
2021/12/25 14:00:19;;;;;;;7.25;5.57;;;;;;;9.20;72.52;97972.38;5115277;28;20197;-69
2021/12/25 14:03:12;;;;;;;23.88;12.77;;;;;;;9.64;70.69;97969.53;5125912;28;20082;-70
2021/12/25 14:06:05;;;;;;;16.40;9.48;;;;;;;9.70;70.96;97984.78;5123330;28;20572;-69
2021/12/25 14:08:57;;;;;;;9.25;5.90;;;;;;;9.40;71.05;97981.75;5124766;28;20061;-70
2021/12/25 14:11:51;;;;;;;11.05;5.93;;;;;;;8.64;73.09;97972.00;5123152;28;20122;-70
2021/12/25 14:14:42;;;;;;;12.63;6.38;;;;;;;8.87;71.43;97996.06;5119616;28;20140;-69
2021/12/25 14:17:32;;;;;;;13.23;6.90;;;;;;;8.81;72.04;97993.22;5116295;28;20537;-69
2021/12/25 14:20:25;;;;;;;80.63;33.67;;;;;;;9.18;71.53;97998.19;5103390;28;20074;-71
2021/12/25 14:23:18;;;;;;;14.48;7.03;;;;;;;9.08;72.18;98006.25;5105061;29;20062;-68
2021/12/25 14:26:08;;;;;;;15.90;7.25;;;;;;;9.02;71.70;98017.44;5123639;28;20418;-68
2021/12/25 14:28:58;;;;;;;29.15;15.25;;;;;;;9.18;71.07;98008.75;5129853;28;20067;-68
2021/12/25 14:31:49;;;;;;;12.57;8.80;;;;;;;9.18;71.08;98009.59;5114054;28;20268;-68
2021/12/25 14:34:39;;;;;;;9.82;7.30;;;;;;;9.22;71.43;98004.81;5120146;28;20801;-68
2021/12/25 14:37:36;;;;;;;13.50;7.72;;;;;;;9.15;71.68;98004.63;5124639;28;20046;-68
2021/12/25 14:40:33;;;;;;;12.18;7.20;;;;;;;7.85;74.79;98009.00;5116789;28;20102;-69
2021/12/25 14:43:31;;;;;;;13.48;8.80;;;;;;;7.97;75.47;97991.94;5123217;28;20193;-68
2021/12/25 14:46:23;;;;;;;14.20;8.85;;;;;;;8.15;75.13;98007.78;5101622;28;20050;-70
2021/12/25 14:49:13;;;;;;;14.05;8.25;;;;;;;7.57;75.76;98003.75;5132597;28;20113;-69
2021/12/25 14:52:05;;;;;;;10.55;7.28;;;;;;;7.67;74.53;98007.16;5108543;28;20059;-70